首页
METAR-TAF:

METAR-TAF

机场 :

Lahr, 德国

纬度: 48-22-09N, 经度: 007-49-40E, 海拔: 156米

当前天气观测

该预报发布于22小时和41分钟前的08:50 UTC
风速4节,风向,在南转南东南转西南之间变化
温度 3°C
湿度 100%
气压 1009 hPa
能見度: 3500
多云层高于200英尺
轻雾

METAR: EDTL 160850Z 18004KT 150V210 3500 BR BKN002 03/03 Q1009

时间: 08:31 (07:31 UTC)

预报

该预报发布于22小时和42分钟前的08:49 UTC
预报有效从16日的 09点(UTC)到 16日的 18点(UTC)
风速3节,风向多变
能见度10公里或以上
少量云层高于2000英尺
短暂存在
从 16日的 09点(UTC)到 16日的 13点(UTC)
能見度: 1500
多云层高于200英尺
轻雾

TAF: EDTL 160849Z 1609/1618 VRB03KT 9999 FEW020 TEMPO 1609/1613 1500 BR BKN002

超过4000个机场的气象观测和天气预报(METAR&TAF报告)。

可查询的气象台以黄色和红色小点在地图上表示。

将鼠标移到小点上方,可查看气象台名称。

然后点击查看天气观测和预报。

如需切换地图:点击带黑十字的绿色按钮放大地图;点击带横线的绿色按钮缩小地图;或者点击绿色箭头查看邻近地区的地图。


METAR-TAF: